sensor_id;sensor_type;location;lat;lon;timestamp;P1;durP1;ratioP1;P2;durP2;ratioP2
19903;SDS011;10114;50.970;4.962;2022-10-16T00:01:59;4.70;;;1.27;;
19903;SDS011;10114;50.970;4.962;2022-10-16T00:04:26;4.30;;;1.25;;
19903;SDS011;10114;50.970;4.962;2022-10-16T00:06:52;2.28;;;0.98;;
19903;SDS011;10114;50.970;4.962;2022-10-16T00:09:18;5.18;;;1.60;;
19903;SDS011;10114;50.970;4.962;2022-10-16T00:11:44;3.22;;;1.15;;
19903;SDS011;10114;50.970;4.962;2022-10-16T00:14:12;4.68;;;1.33;;
19903;SDS011;10114;50.970;4.962;2022-10-16T00:16:38;3.20;;;1.20;;
19903;SDS011;10114;50.970;4.962;2022-10-16T00:19:04;4.20;;;1.17;;
19903;SDS011;10114;50.970;4.962;2022-10-16T00:21:31;5.32;;;1.23;;
19903;SDS011;10114;50.970;4.962;2022-10-16T00:24:01;2.30;;;0.88;;
19903;SDS011;10114;50.970;4.962;2022-10-16T00:26:29;3.97;;;1.67;;
19903;SDS011;10114;50.970;4.962;2022-10-16T00:28:55;3.42;;;1.30;;
19903;SDS011;10114;50.970;4.962;2022-10-16T00:31:22;4.28;;;1.02;;
19903;SDS011;10114;50.970;4.962;2022-10-16T00:33:48;3.05;;;1.08;;
19903;SDS011;10114;50.970;4.962;2022-10-16T00:36:16;2.67;;;1.30;;
19903;SDS011;10114;50.970;4.962;2022-10-16T00:38:43;5.07;;;0.90;;
19903;SDS011;10114;50.970;4.962;2022-10-16T00:41:13;4.82;;;1.20;;
19903;SDS011;10114;50.970;4.962;2022-10-16T00:51:21;6.68;;;1.00;;
19903;SDS011;10114;50.970;4.962;2022-10-16T00:53:49;6.90;;;1.10;;
19903;SDS011;10114;50.970;4.962;2022-10-16T00:56:15;4.68;;;1.08;;
19903;SDS011;10114;50.970;4.962;2022-10-16T00:58:41;3.13;;;1.30;;
19903;SDS011;10114;50.970;4.962;2022-10-16T01:01:07;2.78;;;1.17;;
19903;SDS011;10114;50.970;4.962;2022-10-16T01:03:35;3.13;;;0.90;;
19903;SDS011;10114;50.970;4.962;2022-10-16T01:06:08;3.55;;;1.25;;
19903;SDS011;10114;50.970;4.962;2022-10-16T01:08:39;4.25;;;1.20;;
19903;SDS011;10114;50.970;4.962;2022-10-16T01:11:16;5.47;;;1.15;;
19903;SDS011;10114;50.970;4.962;2022-10-16T01:13:44;2.35;;;0.95;;
19903;SDS011;10114;50.970;4.962;2022-10-16T01:21:48;3.58;;;1.30;;
19903;SDS011;10114;50.970;4.962;2022-10-16T01:27:04;4.65;;;1.40;;
19903;SDS011;10114;50.970;4.962;2022-10-16T01:29:42;3.70;;;1.10;;
19903;SDS011;10114;50.970;4.962;2022-10-16T01:34:58;4.35;;;1.45;;
19903;SDS011;10114;50.970;4.962;2022-10-16T01:37:33;6.45;;;1.25;;
19903;SDS011;10114;50.970;4.962;2022-10-16T01:40:02;6.32;;;1.25;;
19903;SDS011;10114;50.970;4.962;2022-10-16T01:42:30;5.20;;;1.50;;
19903;SDS011;10114;50.970;4.962;2022-10-16T01:44:58;4.50;;;1.15;;
19903;SDS011;10114;50.970;4.962;2022-10-16T01:47:25;3.88;;;1.30;;
19903;SDS011;10114;50.970;4.962;2022-10-16T01:49:52;4.88;;;1.05;;
19903;SDS011;10114;50.970;4.962;2022-10-16T01:52:21;4.35;;;1.10;;
19903;SDS011;10114;50.970;4.962;2022-10-16T01:54:48;3.25;;;1.10;;
19903;SDS011;10114;50.970;4.962;2022-10-16T01:57:16;4.22;;;1.25;;
19903;SDS011;10114;50.970;4.962;2022-10-16T01:59:44;4.60;;;1.17;;
19903;SDS011;10114;50.970;4.962;2022-10-16T02:02:12;3.95;;;1.35;;
19903;SDS011;10114;50.970;4.962;2022-10-16T02:07:10;3.05;;;1.20;;
19903;SDS011;10114;50.970;4.962;2022-10-16T02:09:36;3.33;;;1.13;;
19903;SDS011;10114;50.970;4.962;2022-10-16T02:12:06;3.10;;;1.10;;
19903;SDS011;10114;50.970;4.962;2022-10-16T02:14:33;5.03;;;1.30;;
19903;SDS011;10114;50.970;4.962;2022-10-16T02:17:00;5.25;;;1.40;;
19903;SDS011;10114;50.970;4.962;2022-10-16T02:19:26;3.97;;;1.52;;
19903;SDS011;10114;50.970;4.962;2022-10-16T02:21:56;3.50;;;1.38;;
19903;SDS011;10114;50.970;4.962;2022-10-16T02:24:32;5.32;;;1.45;;
19903;SDS011;10114;50.970;4.962;2022-10-16T02:27:04;5.43;;;1.40;;
19903;SDS011;10114;50.970;4.962;2022-10-16T02:29:33;5.50;;;1.30;;
19903;SDS011;10114;50.970;4.962;2022-10-16T02:32:03;6.43;;;1.65;;
19903;SDS011;10114;50.970;4.962;2022-10-16T02:34:30;3.60;;;1.42;;
19903;SDS011;10114;50.970;4.962;2022-10-16T02:36:58;4.95;;;1.38;;
19903;SDS011;10114;50.970;4.962;2022-10-16T02:39:24;5.22;;;1.70;;
19903;SDS011;10114;50.970;4.962;2022-10-16T02:41:52;6.18;;;1.50;;
19903;SDS011;10114;50.970;4.962;2022-10-16T02:44:18;7.03;;;1.67;;
19903;SDS011;10114;50.970;4.962;2022-10-16T02:46:44;5.07;;;1.52;;
19903;SDS011;10114;50.970;4.962;2022-10-16T02:49:10;8.35;;;1.92;;
19903;SDS011;10114;50.970;4.962;2022-10-16T02:51:36;4.32;;;1.60;;
19903;SDS011;10114;50.970;4.962;2022-10-16T02:54:02;8.43;;;2.25;;
19903;SDS011;10114;50.970;4.962;2022-10-16T02:56:28;6.25;;;2.03;;
19903;SDS011;10114;50.970;4.962;2022-10-16T02:58:55;6.85;;;2.20;;
19903;SDS011;10114;50.970;4.962;2022-10-16T03:01:21;6.28;;;2.08;;
19903;SDS011;10114;50.970;4.962;2022-10-16T03:03:47;7.63;;;2.10;;
19903;SDS011;10114;50.970;4.962;2022-10-16T03:06:13;5.32;;;1.58;;
19903;SDS011;10114;50.970;4.962;2022-10-16T03:08:39;8.73;;;2.33;;
19903;SDS011;10114;50.970;4.962;2022-10-16T03:11:05;8.00;;;2.13;;
19903;SDS011;10114;50.970;4.962;2022-10-16T03:13:31;9.60;;;2.00;;
19903;SDS011;10114;50.970;4.962;2022-10-16T03:15:57;5.65;;;1.83;;
19903;SDS011;10114;50.970;4.962;2022-10-16T03:18:23;6.82;;;2.03;;
19903;SDS011;10114;50.970;4.962;2022-10-16T03:20:49;6.82;;;2.25;;
19903;SDS011;10114;50.970;4.962;2022-10-16T03:23:15;7.47;;;2.17;;
19903;SDS011;10114;50.970;4.962;2022-10-16T03:25:41;8.13;;;2.00;;
19903;SDS011;10114;50.970;4.962;2022-10-16T03:28:07;5.07;;;1.63;;
19903;SDS011;10114;50.970;4.962;2022-10-16T03:30:34;6.72;;;2.08;;
19903;SDS011;10114;50.970;4.962;2022-10-16T03:33:00;7.35;;;2.17;;
19903;SDS011;10114;50.970;4.962;2022-10-16T03:35:26;5.80;;;1.98;;
19903;SDS011;10114;50.970;4.962;2022-10-16T03:37:52;7.25;;;2.30;;
19903;SDS011;10114;50.970;4.962;2022-10-16T03:40:18;5.97;;;2.00;;
19903;SDS011;10114;50.970;4.962;2022-10-16T03:42:44;6.25;;;1.58;;
19903;SDS011;10114;50.970;4.962;2022-10-16T03:45:10;5.88;;;1.90;;
19903;SDS011;10114;50.970;4.962;2022-10-16T03:47:37;6.65;;;2.40;;
19903;SDS011;10114;50.970;4.962;2022-10-16T03:50:03;5.25;;;1.98;;
19903;SDS011;10114;50.970;4.962;2022-10-16T03:52:30;5.28;;;1.73;;
19903;SDS011;10114;50.970;4.962;2022-10-16T03:54:57;9.05;;;2.35;;
19903;SDS011;10114;50.970;4.962;2022-10-16T03:57:23;9.27;;;2.20;;
19903;SDS011;10114;50.970;4.962;2022-10-16T03:59:49;9.23;;;2.05;;
19903;SDS011;10114;50.970;4.962;2022-10-16T04:02:15;5.38;;;2.35;;
19903;SDS011;10114;50.970;4.962;2022-10-16T04:04:41;4.70;;;1.73;;
19903;SDS011;10114;50.970;4.962;2022-10-16T04:07:07;5.82;;;2.03;;
19903;SDS011;10114;50.970;4.962;2022-10-16T04:09:33;6.38;;;2.20;;
19903;SDS011;10114;50.970;4.962;2022-10-16T04:11:59;5.38;;;1.75;;
19903;SDS011;10114;50.970;4.962;2022-10-16T04:14:25;6.25;;;2.17;;
19903;SDS011;10114;50.970;4.962;2022-10-16T04:16:51;5.10;;;1.67;;
19903;SDS011;10114;50.970;4.962;2022-10-16T04:19:17;6.18;;;1.77;;
19903;SDS011;10114;50.970;4.962;2022-10-16T04:21:44;7.25;;;1.98;;
19903;SDS011;10114;50.970;4.962;2022-10-16T04:24:09;5.15;;;1.67;;
19903;SDS011;10114;50.970;4.962;2022-10-16T04:26:36;3.97;;;1.80;;
19903;SDS011;10114;50.970;4.962;2022-10-16T04:29:02;5.88;;;1.92;;
19903;SDS011;10114;50.970;4.962;2022-10-16T04:31:29;4.95;;;1.80;;
19903;SDS011;10114;50.970;4.962;2022-10-16T04:33:55;5.70;;;1.90;;
19903;SDS011;10114;50.970;4.962;2022-10-16T04:36:21;4.78;;;1.80;;
19903;SDS011;10114;50.970;4.962;2022-10-16T04:38:47;6.00;;;2.15;;
19903;SDS011;10114;50.970;4.962;2022-10-16T04:41:13;4.20;;;1.83;;
19903;SDS011;10114;50.970;4.962;2022-10-16T04:43:39;6.43;;;1.90;;
19903;SDS011;10114;50.970;4.962;2022-10-16T04:46:05;7.10;;;2.40;;
19903;SDS011;10114;50.970;4.962;2022-10-16T04:48:31;7.13;;;2.40;;
19903;SDS011;10114;50.970;4.962;2022-10-16T04:50:57;4.95;;;2.10;;
19903;SDS011;10114;50.970;4.962;2022-10-16T04:53:23;5.80;;;2.20;;
19903;SDS011;10114;50.970;4.962;2022-10-16T04:55:49;4.57;;;2.15;;
19903;SDS011;10114;50.970;4.962;2022-10-16T04:58:16;7.93;;;2.40;;
19903;SDS011;10114;50.970;4.962;2022-10-16T05:00:42;11.57;;;2.40;;
19903;SDS011;10114;50.970;4.962;2022-10-16T05:03:08;6.32;;;2.20;;
19903;SDS011;10114;50.970;4.962;2022-10-16T05:05:35;7.47;;;2.28;;
19903;SDS011;10114;50.970;4.962;2022-10-16T05:08:01;5.75;;;2.13;;
19903;SDS011;10114;50.970;4.962;2022-10-16T05:10:27;5.60;;;2.05;;
19903;SDS011;10114;50.970;4.962;2022-10-16T05:12:54;10.95;;;2.38;;
19903;SDS011;10114;50.970;4.962;2022-10-16T05:15:20;4.97;;;2.25;;
19903;SDS011;10114;50.970;4.962;2022-10-16T05:17:46;4.63;;;2.28;;
19903;SDS011;10114;50.970;4.962;2022-10-16T05:20:12;6.38;;;2.05;;
19903;SDS011;10114;50.970;4.962;2022-10-16T05:22:38;9.65;;;2.72;;
19903;SDS011;10114;50.970;4.962;2022-10-16T05:25:04;6.07;;;2.30;;
19903;SDS011;10114;50.970;4.962;2022-10-16T05:27:30;6.43;;;1.88;;
19903;SDS011;10114;50.970;4.962;2022-10-16T05:29:56;7.72;;;2.00;;
19903;SDS011;10114;50.970;4.962;2022-10-16T05:32:22;5.90;;;2.40;;
19903;SDS011;10114;50.970;4.962;2022-10-16T05:34:48;8.85;;;2.88;;
19903;SDS011;10114;50.970;4.962;2022-10-16T05:37:14;4.53;;;2.28;;
19903;SDS011;10114;50.970;4.962;2022-10-16T05:39:40;7.20;;;3.25;;
19903;SDS011;10114;50.970;4.962;2022-10-16T05:42:06;7.78;;;2.15;;
19903;SDS011;10114;50.970;4.962;2022-10-16T05:44:32;6.18;;;2.58;;
19903;SDS011;10114;50.970;4.962;2022-10-16T05:46:58;6.60;;;2.88;;
19903;SDS011;10114;50.970;4.962;2022-10-16T05:49:24;9.85;;;2.90;;
19903;SDS011;10114;50.970;4.962;2022-10-16T05:51:50;7.90;;;2.45;;
19903;SDS011;10114;50.970;4.962;2022-10-16T05:54:16;9.20;;;2.58;;
19903;SDS011;10114;50.970;4.962;2022-10-16T05:56:42;6.90;;;2.72;;
19903;SDS011;10114;50.970;4.962;2022-10-16T05:59:08;7.60;;;2.83;;
19903;SDS011;10114;50.970;4.962;2022-10-16T06:01:34;7.30;;;4.35;;
19903;SDS011;10114;50.970;4.962;2022-10-16T06:04:01;9.27;;;2.58;;
19903;SDS011;10114;50.970;4.962;2022-10-16T06:06:27;6.85;;;2.80;;
19903;SDS011;10114;50.970;4.962;2022-10-16T06:08:55;6.45;;;2.65;;
19903;SDS011;10114;50.970;4.962;2022-10-16T06:11:23;6.88;;;2.60;;
19903;SDS011;10114;50.970;4.962;2022-10-16T06:13:50;10.80;;;3.45;;
19903;SDS011;10114;50.970;4.962;2022-10-16T06:16:16;9.13;;;2.88;;
19903;SDS011;10114;50.970;4.962;2022-10-16T06:18:42;7.15;;;2.90;;
19903;SDS011;10114;50.970;4.962;2022-10-16T06:21:09;5.82;;;2.60;;
19903;SDS011;10114;50.970;4.962;2022-10-16T06:23:35;8.98;;;2.92;;
19903;SDS011;10114;50.970;4.962;2022-10-16T06:26:20;8.52;;;3.28;;
19903;SDS011;10114;50.970;4.962;2022-10-16T06:28:47;10.30;;;4.20;;
19903;SDS011;10114;50.970;4.962;2022-10-16T06:31:14;11.88;;;3.67;;
19903;SDS011;10114;50.970;4.962;2022-10-16T06:33:40;13.15;;;5.03;;
19903;SDS011;10114;50.970;4.962;2022-10-16T06:38:33;8.18;;;3.92;;
19903;SDS011;10114;50.970;4.962;2022-10-16T06:40:59;9.15;;;2.90;;
19903;SDS011;10114;50.970;4.962;2022-10-16T06:43:26;8.23;;;3.20;;
19903;SDS011;10114;50.970;4.962;2022-10-16T06:48:18;12.57;;;3.15;;
19903;SDS011;10114;50.970;4.962;2022-10-16T06:50:45;10.35;;;3.45;;
19903;SDS011;10114;50.970;4.962;2022-10-16T06:53:20;18.52;;;3.67;;
19903;SDS011;10114;50.970;4.962;2022-10-16T06:55:46;9.63;;;3.45;;
19903;SDS011;10114;50.970;4.962;2022-10-16T06:58:12;10.05;;;3.97;;
19903;SDS011;10114;50.970;4.962;2022-10-16T07:00:38;7.15;;;3.13;;
19903;SDS011;10114;50.970;4.962;2022-10-16T07:03:04;8.30;;;3.10;;
19903;SDS011;10114;50.970;4.962;2022-10-16T07:05:30;6.60;;;2.92;;
19903;SDS011;10114;50.970;4.962;2022-10-16T07:07:56;7.72;;;3.00;;
19903;SDS011;10114;50.970;4.962;2022-10-16T07:10:22;6.80;;;2.92;;
19903;SDS011;10114;50.970;4.962;2022-10-16T07:12:51;8.50;;;2.60;;
19903;SDS011;10114;50.970;4.962;2022-10-16T07:15:17;10.52;;;3.03;;
19903;SDS011;10114;50.970;4.962;2022-10-16T07:17:42;8.93;;;3.08;;
19903;SDS011;10114;50.970;4.962;2022-10-16T07:20:09;6.30;;;2.55;;
19903;SDS011;10114;50.970;4.962;2022-10-16T07:22:35;10.57;;;2.90;;
19903;SDS011;10114;50.970;4.962;2022-10-16T07:25:01;9.20;;;3.50;;
19903;SDS011;10114;50.970;4.962;2022-10-16T07:27:27;9.85;;;2.50;;
19903;SDS011;10114;50.970;4.962;2022-10-16T07:29:53;8.95;;;2.70;;
19903;SDS011;10114;50.970;4.962;2022-10-16T07:32:19;9.05;;;2.30;;
19903;SDS011;10114;50.970;4.962;2022-10-16T07:34:45;7.10;;;2.92;;
19903;SDS011;10114;50.970;4.962;2022-10-16T07:37:11;9.45;;;2.58;;
19903;SDS011;10114;50.970;4.962;2022-10-16T07:39:37;10.48;;;2.63;;
19903;SDS011;10114;50.970;4.962;2022-10-16T07:42:03;7.28;;;2.80;;
19903;SDS011;10114;50.970;4.962;2022-10-16T07:44:29;6.82;;;2.20;;
19903;SDS011;10114;50.970;4.962;2022-10-16T07:46:55;6.10;;;2.65;;
19903;SDS011;10114;50.970;4.962;2022-10-16T07:49:22;6.35;;;2.65;;
19903;SDS011;10114;50.970;4.962;2022-10-16T07:51:48;5.43;;;2.38;;
19903;SDS011;10114;50.970;4.962;2022-10-16T07:54:14;6.82;;;2.53;;
19903;SDS011;10114;50.970;4.962;2022-10-16T07:56:40;7.20;;;2.80;;
19903;SDS011;10114;50.970;4.962;2022-10-16T07:59:06;7.85;;;2.90;;
19903;SDS011;10114;50.970;4.962;2022-10-16T08:01:32;8.15;;;2.28;;
19903;SDS011;10114;50.970;4.962;2022-10-16T08:03:58;7.10;;;2.55;;
19903;SDS011;10114;50.970;4.962;2022-10-16T08:06:24;5.40;;;2.60;;
19903;SDS011;10114;50.970;4.962;2022-10-16T08:08:50;9.05;;;2.22;;
19903;SDS011;10114;50.970;4.962;2022-10-16T08:11:16;6.63;;;2.40;;
19903;SDS011;10114;50.970;4.962;2022-10-16T08:13:43;4.68;;;1.90;;
19903;SDS011;10114;50.970;4.962;2022-10-16T08:16:09;7.93;;;2.10;;
19903;SDS011;10114;50.970;4.962;2022-10-16T08:18:36;5.95;;;1.95;;
19903;SDS011;10114;50.970;4.962;2022-10-16T08:21:03;7.93;;;2.25;;
19903;SDS011;10114;50.970;4.962;2022-10-16T08:23:29;6.65;;;1.65;;
19903;SDS011;10114;50.970;4.962;2022-10-16T08:25:56;4.72;;;1.83;;
19903;SDS011;10114;50.970;4.962;2022-10-16T08:28:22;5.63;;;2.20;;
19903;SDS011;10114;50.970;4.962;2022-10-16T08:30:48;6.13;;;1.70;;
19903;SDS011;10114;50.970;4.962;2022-10-16T08:33:15;6.03;;;1.60;;
19903;SDS011;10114;50.970;4.962;2022-10-16T08:35:41;6.15;;;1.55;;
19903;SDS011;10114;50.970;4.962;2022-10-16T08:38:07;8.73;;;1.80;;
19903;SDS011;10114;50.970;4.962;2022-10-16T08:40:33;6.93;;;1.65;;
19903;SDS011;10114;50.970;4.962;2022-10-16T08:43:18;4.97;;;1.40;;
19903;SDS011;10114;50.970;4.962;2022-10-16T08:50:52;5.85;;;1.48;;
19903;SDS011;10114;50.970;4.962;2022-10-16T08:53:20;4.65;;;1.35;;
19903;SDS011;10114;50.970;4.962;2022-10-16T08:55:50;6.55;;;1.77;;
19903;SDS011;10114;50.970;4.962;2022-10-16T08:58:17;9.50;;;1.42;;
19903;SDS011;10114;50.970;4.962;2022-10-16T09:00:44;3.83;;;1.20;;
19903;SDS011;10114;50.970;4.962;2022-10-16T09:03:22;3.85;;;1.25;;
19903;SDS011;10114;50.970;4.962;2022-10-16T09:05:52;7.70;;;1.20;;
19903;SDS011;10114;50.970;4.962;2022-10-16T09:08:24;4.93;;;1.17;;
19903;SDS011;10114;50.970;4.962;2022-10-16T09:10:56;6.55;;;0.90;;
19903;SDS011;10114;50.970;4.962;2022-10-16T09:13:29;5.28;;;1.10;;
19903;SDS011;10114;50.970;4.962;2022-10-16T09:16:18;3.78;;;1.00;;
19903;SDS011;10114;50.970;4.962;2022-10-16T09:18:49;4.90;;;0.80;;
19903;SDS011;10114;50.970;4.962;2022-10-16T09:21:28;3.88;;;1.17;;
19903;SDS011;10114;50.970;4.962;2022-10-16T09:23:59;7.57;;;1.30;;
19903;SDS011;10114;50.970;4.962;2022-10-16T09:26:25;5.90;;;1.30;;
19903;SDS011;10114;50.970;4.962;2022-10-16T09:28:52;4.00;;;1.23;;
19903;SDS011;10114;50.970;4.962;2022-10-16T09:31:19;5.88;;;1.10;;
19903;SDS011;10114;50.970;4.962;2022-10-16T09:33:47;5.10;;;1.10;;
19903;SDS011;10114;50.970;4.962;2022-10-16T09:36:14;6.13;;;1.02;;
19903;SDS011;10114;50.970;4.962;2022-10-16T09:38:40;6.53;;;1.27;;
19903;SDS011;10114;50.970;4.962;2022-10-16T09:41:19;4.75;;;1.27;;
19903;SDS011;10114;50.970;4.962;2022-10-16T09:43:56;7.97;;;1.25;;
19903;SDS011;10114;50.970;4.962;2022-10-16T09:46:32;5.18;;;1.00;;
19903;SDS011;10114;50.970;4.962;2022-10-16T09:49:00;5.07;;;1.30;;
19903;SDS011;10114;50.970;4.962;2022-10-16T09:51:27;4.85;;;1.08;;
19903;SDS011;10114;50.970;4.962;2022-10-16T09:53:56;6.05;;;1.15;;
19903;SDS011;10114;50.970;4.962;2022-10-16T09:56:23;4.10;;;0.75;;
19903;SDS011;10114;50.970;4.962;2022-10-16T09:58:50;8.32;;;1.08;;
19903;SDS011;10114;50.970;4.962;2022-10-16T10:01:17;3.30;;;0.98;;
19903;SDS011;10114;50.970;4.962;2022-10-16T10:03:44;3.53;;;0.70;;
19903;SDS011;10114;50.970;4.962;2022-10-16T10:06:24;5.43;;;1.10;;
19903;SDS011;10114;50.970;4.962;2022-10-16T10:11:36;2.67;;;0.80;;
19903;SDS011;10114;50.970;4.962;2022-10-16T10:14:18;7.05;;;1.20;;
19903;SDS011;10114;50.970;4.962;2022-10-16T10:16:46;5.45;;;0.95;;
19903;SDS011;10114;50.970;4.962;2022-10-16T10:19:20;6.22;;;1.08;;
19903;SDS011;10114;50.970;4.962;2022-10-16T10:21:46;5.65;;;1.02;;
19903;SDS011;10114;50.970;4.962;2022-10-16T10:24:14;5.90;;;1.15;;
19903;SDS011;10114;50.970;4.962;2022-10-16T10:26:43;4.57;;;0.77;;
19903;SDS011;10114;50.970;4.962;2022-10-16T10:29:25;5.75;;;1.25;;
19903;SDS011;10114;50.970;4.962;2022-10-16T10:32:02;5.95;;;1.00;;
19903;SDS011;10114;50.970;4.962;2022-10-16T10:37:28;3.85;;;1.13;;
19903;SDS011;10114;50.970;4.962;2022-10-16T10:39:58;4.45;;;1.00;;
19903;SDS011;10114;50.970;4.962;2022-10-16T10:42:36;4.93;;;1.08;;
19903;SDS011;10114;50.970;4.962;2022-10-16T10:45:21;7.70;;;0.85;;
19903;SDS011;10114;50.970;4.962;2022-10-16T10:47:56;5.03;;;1.13;;
19903;SDS011;10114;50.970;4.962;2022-10-16T11:05:42;4.93;;;1.05;;
19903;SDS011;10114;50.970;4.962;2022-10-16T11:10:42;6.25;;;1.10;;
19903;SDS011;10114;50.970;4.962;2022-10-16T11:13:19;5.43;;;0.75;;
19903;SDS011;10114;50.970;4.962;2022-10-16T11:15:47;3.33;;;0.75;;
19903;SDS011;10114;50.970;4.962;2022-10-16T11:18:37;8.35;;;2.50;;
19903;SDS011;10114;50.970;4.962;2022-10-16T11:21:08;6.50;;;1.00;;
19903;SDS011;10114;50.970;4.962;2022-10-16T11:26:05;5.22;;;0.80;;
19903;SDS011;10114;50.970;4.962;2022-10-16T11:28:41;5.43;;;1.00;;
19903;SDS011;10114;50.970;4.962;2022-10-16T11:31:17;6.60;;;0.88;;
19903;SDS011;10114;50.970;4.962;2022-10-16T11:33:46;7.70;;;1.30;;
19903;SDS011;10114;50.970;4.962;2022-10-16T11:36:15;4.95;;;0.90;;
19903;SDS011;10114;50.970;4.962;2022-10-16T11:39:02;5.97;;;0.90;;
19903;SDS011;10114;50.970;4.962;2022-10-16T11:44:19;6.15;;;0.93;;
19903;SDS011;10114;50.970;4.962;2022-10-16T11:46:48;6.07;;;1.00;;
19903;SDS011;10114;50.970;4.962;2022-10-16T11:49:20;3.00;;;0.80;;
19903;SDS011;10114;50.970;4.962;2022-10-16T11:54:18;6.53;;;0.80;;
19903;SDS011;10114;50.970;4.962;2022-10-16T11:56:47;6.80;;;1.88;;
19903;SDS011;10114;50.970;4.962;2022-10-16T12:06:55;6.07;;;1.17;;
19903;SDS011;10114;50.970;4.962;2022-10-16T12:09:27;6.43;;;0.80;;
19903;SDS011;10114;50.970;4.962;2022-10-16T12:11:53;5.55;;;1.10;;
19903;SDS011;10114;50.970;4.962;2022-10-16T12:14:21;3.92;;;0.60;;
19903;SDS011;10114;50.970;4.962;2022-10-16T12:16:57;6.25;;;1.00;;
19903;SDS011;10114;50.970;4.962;2022-10-16T12:19:30;4.95;;;0.60;;
19903;SDS011;10114;50.970;4.962;2022-10-16T12:21:57;5.88;;;0.80;;
19903;SDS011;10114;50.970;4.962;2022-10-16T12:26:53;5.90;;;0.85;;
19903;SDS011;10114;50.970;4.962;2022-10-16T12:31:48;3.45;;;0.90;;
19903;SDS011;10114;50.970;4.962;2022-10-16T12:34:48;3.03;;;0.77;;
19903;SDS011;10114;50.970;4.962;2022-10-16T12:37:20;5.78;;;0.80;;
19903;SDS011;10114;50.970;4.962;2022-10-16T12:39:47;8.43;;;1.00;;
19903;SDS011;10114;50.970;4.962;2022-10-16T12:44:53;5.50;;;0.75;;
19903;SDS011;10114;50.970;4.962;2022-10-16T12:47:23;4.97;;;0.70;;
19903;SDS011;10114;50.970;4.962;2022-10-16T12:49:53;5.70;;;1.23;;
19903;SDS011;10114;50.970;4.962;2022-10-16T12:52:34;3.47;;;1.10;;
19903;SDS011;10114;50.970;4.962;2022-10-16T12:55:01;3.67;;;1.05;;
19903;SDS011;10114;50.970;4.962;2022-10-16T12:57:34;8.02;;;1.45;;
19903;SDS011;10114;50.970;4.962;2022-10-16T13:02:44;2.33;;;0.75;;
19903;SDS011;10114;50.970;4.962;2022-10-16T13:05:21;3.92;;;0.85;;
19903;SDS011;10114;50.970;4.962;2022-10-16T13:15:26;5.15;;;1.02;;
19903;SDS011;10114;50.970;4.962;2022-10-16T13:18:10;3.45;;;0.70;;
19903;SDS011;10114;50.970;4.962;2022-10-16T13:23:13;5.63;;;0.90;;
19903;SDS011;10114;50.970;4.962;2022-10-16T13:28:13;3.72;;;1.00;;
19903;SDS011;10114;50.970;4.962;2022-10-16T13:30:40;4.78;;;1.15;;
19903;SDS011;10114;50.970;4.962;2022-10-16T13:35:35;7.07;;;1.05;;
19903;SDS011;10114;50.970;4.962;2022-10-16T13:40:31;5.95;;;1.08;;
19903;SDS011;10114;50.970;4.962;2022-10-16T13:42:59;6.30;;;0.80;;
19903;SDS011;10114;50.970;4.962;2022-10-16T13:45:25;4.35;;;0.80;;
19903;SDS011;10114;50.970;4.962;2022-10-16T13:48:02;7.53;;;0.95;;
19903;SDS011;10114;50.970;4.962;2022-10-16T13:50:28;7.05;;;1.00;;
19903;SDS011;10114;50.970;4.962;2022-10-16T13:53:03;10.80;;;1.33;;
19903;SDS011;10114;50.970;4.962;2022-10-16T13:55:29;4.03;;;0.93;;
19903;SDS011;10114;50.970;4.962;2022-10-16T13:58:07;5.03;;;0.93;;
19903;SDS011;10114;50.970;4.962;2022-10-16T14:00:33;3.92;;;1.05;;
19903;SDS011;10114;50.970;4.962;2022-10-16T14:03:04;4.07;;;0.80;;
19903;SDS011;10114;50.970;4.962;2022-10-16T14:05:31;6.35;;;1.20;;
19903;SDS011;10114;50.970;4.962;2022-10-16T14:07:57;3.47;;;0.85;;
19903;SDS011;10114;50.970;4.962;2022-10-16T14:10:25;2.95;;;0.70;;
19903;SDS011;10114;50.970;4.962;2022-10-16T14:12:59;5.03;;;1.20;;
19903;SDS011;10114;50.970;4.962;2022-10-16T14:15:26;7.75;;;0.77;;
19903;SDS011;10114;50.970;4.962;2022-10-16T14:17:52;5.60;;;1.00;;
19903;SDS011;10114;50.970;4.962;2022-10-16T14:20:19;4.40;;;0.93;;
19903;SDS011;10114;50.970;4.962;2022-10-16T14:22:46;4.43;;;1.02;;
19903;SDS011;10114;50.970;4.962;2022-10-16T14:27:44;3.15;;;0.80;;
19903;SDS011;10114;50.970;4.962;2022-10-16T14:30:12;5.25;;;1.10;;
19903;SDS011;10114;50.970;4.962;2022-10-16T14:32:40;5.80;;;1.08;;
19903;SDS011;10114;50.970;4.962;2022-10-16T14:37:52;4.80;;;0.80;;
19903;SDS011;10114;50.970;4.962;2022-10-16T14:40:18;3.60;;;0.80;;
19903;SDS011;10114;50.970;4.962;2022-10-16T14:42:44;3.85;;;0.82;;
19903;SDS011;10114;50.970;4.962;2022-10-16T14:45:11;5.25;;;0.90;;
19903;SDS011;10114;50.970;4.962;2022-10-16T14:47:37;5.63;;;1.10;;
19903;SDS011;10114;50.970;4.962;2022-10-16T14:50:13;4.82;;;0.90;;
19903;SDS011;10114;50.970;4.962;2022-10-16T14:52:39;6.15;;;1.10;;
19903;SDS011;10114;50.970;4.962;2022-10-16T14:55:05;4.07;;;0.90;;
19903;SDS011;10114;50.970;4.962;2022-10-16T14:57:31;2.83;;;0.95;;
19903;SDS011;10114;50.970;4.962;2022-10-16T14:59:59;4.50;;;1.17;;
19903;SDS011;10114;50.970;4.962;2022-10-16T15:02:32;3.55;;;1.13;;
19903;SDS011;10114;50.970;4.962;2022-10-16T15:05:10;5.05;;;1.00;;
19903;SDS011;10114;50.970;4.962;2022-10-16T15:07:37;6.90;;;1.67;;
19903;SDS011;10114;50.970;4.962;2022-10-16T15:10:03;6.82;;;1.38;;
19903;SDS011;10114;50.970;4.962;2022-10-16T15:12:30;6.32;;;1.02;;
19903;SDS011;10114;50.970;4.962;2022-10-16T15:14:56;2.42;;;0.85;;
19903;SDS011;10114;50.970;4.962;2022-10-16T15:17:22;4.38;;;0.95;;
19903;SDS011;10114;50.970;4.962;2022-10-16T15:19:48;4.97;;;1.63;;
19903;SDS011;10114;50.970;4.962;2022-10-16T15:22:14;4.00;;;0.82;;
19903;SDS011;10114;50.970;4.962;2022-10-16T15:24:40;2.25;;;0.70;;
19903;SDS011;10114;50.970;4.962;2022-10-16T15:27:06;5.25;;;0.98;;
19903;SDS011;10114;50.970;4.962;2022-10-16T15:29:32;4.32;;;1.00;;
19903;SDS011;10114;50.970;4.962;2022-10-16T15:31:58;2.83;;;0.70;;
19903;SDS011;10114;50.970;4.962;2022-10-16T15:34:24;4.93;;;0.70;;
19903;SDS011;10114;50.970;4.962;2022-10-16T15:36:50;3.28;;;0.80;;
19903;SDS011;10114;50.970;4.962;2022-10-16T15:39:17;7.25;;;1.35;;
19903;SDS011;10114;50.970;4.962;2022-10-16T15:41:44;3.97;;;0.93;;
19903;SDS011;10114;50.970;4.962;2022-10-16T15:44:15;3.75;;;0.90;;
19903;SDS011;10114;50.970;4.962;2022-10-16T15:46:41;3.88;;;1.00;;
19903;SDS011;10114;50.970;4.962;2022-10-16T15:49:07;4.40;;;1.02;;
19903;SDS011;10114;50.970;4.962;2022-10-16T15:51:34;4.93;;;1.10;;
19903;SDS011;10114;50.970;4.962;2022-10-16T15:54:03;4.72;;;1.10;;
19903;SDS011;10114;50.970;4.962;2022-10-16T15:56:29;7.00;;;1.60;;
19903;SDS011;10114;50.970;4.962;2022-10-16T15:58:58;4.53;;;1.20;;
19903;SDS011;10114;50.970;4.962;2022-10-16T16:01:24;6.05;;;0.80;;
19903;SDS011;10114;50.970;4.962;2022-10-16T16:03:53;7.25;;;1.00;;
19903;SDS011;10114;50.970;4.962;2022-10-16T16:06:20;3.60;;;1.00;;
19903;SDS011;10114;50.970;4.962;2022-10-16T16:08:46;6.97;;;1.30;;
19903;SDS011;10114;50.970;4.962;2022-10-16T16:11:13;6.30;;;1.38;;
19903;SDS011;10114;50.970;4.962;2022-10-16T16:13:39;3.17;;;1.05;;
19903;SDS011;10114;50.970;4.962;2022-10-16T16:16:09;4.80;;;1.00;;
19903;SDS011;10114;50.970;4.962;2022-10-16T16:18:36;4.47;;;1.13;;
19903;SDS011;10114;50.970;4.962;2022-10-16T16:21:02;7.47;;;1.88;;
19903;SDS011;10114;50.970;4.962;2022-10-16T16:23:28;8.13;;;2.53;;
19903;SDS011;10114;50.970;4.962;2022-10-16T16:26:11;5.65;;;1.98;;
19903;SDS011;10114;50.970;4.962;2022-10-16T16:28:39;6.03;;;2.20;;
19903;SDS011;10114;50.970;4.962;2022-10-16T16:31:05;9.45;;;1.90;;
19903;SDS011;10114;50.970;4.962;2022-10-16T16:33:31;7.28;;;2.08;;
19903;SDS011;10114;50.970;4.962;2022-10-16T16:36:01;7.63;;;1.50;;
19903;SDS011;10114;50.970;4.962;2022-10-16T16:38:27;5.32;;;1.65;;